Time;durP1;ratioP1;P1;durP2;ratioP2;P2;SDS_P1;SDS_P2;PMS_P1;PMS_P2;Temp;Humidity;BMP_temperature;BMP_pressure;BME280_temperature;BME280_humidity;BME280_pressure;Samples;Min_cycle;Max_cycle;Signal;HPM_P1;HPM_P2
2022/04/27 00:00:33;;;;;;;3.20;2.20;;;358.50;2329.60;;;;;;5030119;28;20045;-57
2022/04/27 00:03:00;;;;;;;3.40;2.60;;;333.70;2329.60;;;;;;5030054;28;20029;-56
2022/04/27 00:05:26;;;;;;;3.70;2.42;;;333.70;2329.60;;;;;;5030086;28;20029;-57
2022/04/27 00:07:51;;;;;;;3.30;2.20;;;333.70;2329.60;;;;;;5030002;28;20026;-56
2022/04/27 00:10:20;;;;;;;2.85;2.20;;;333.70;2329.60;;;;;;5030216;28;20034;-60
2022/04/27 00:12:47;;;;;;;4.20;2.85;;;358.40;2329.60;;;;;;5028881;28;20388;-57
2022/04/27 00:15:13;;;;;;;3.72;2.50;;;358.40;2329.60;;;;;;5030105;28;20083;-57
2022/04/27 00:17:39;;;;;;;4.13;2.38;;;358.40;2329.60;;;;;;5030075;28;20030;-57
2022/04/27 00:20:07;;;;;;;3.58;2.17;;;358.40;2329.60;;;;;;5030090;28;20468;-55
2022/04/27 00:22:34;;;;;;;3.38;2.55;;;358.40;2329.60;;;;;;5031947;28;20022;-57
2022/04/27 00:25:00;;;;;;;3.47;2.47;;;333.70;2329.60;;;;;;5034054;28;20029;-57
2022/04/27 00:27:27;;;;;;;3.65;2.55;;;358.40;2329.60;;;;;;5034092;28;20026;-56
2022/04/27 00:29:54;;;;;;;4.75;3.38;;;358.40;2329.60;;;;;;5033858;28;20076;-62
2022/04/27 00:32:20;;;;;;;2.80;1.98;;;333.70;2329.60;;;;;;5033703;28;20097;-60
2022/04/27 00:34:45;;;;;;;4.15;3.08;;;333.60;2329.60;;;;;;5033614;28;20500;-60
2022/04/27 00:37:11;;;;;;;3.85;2.65;;;333.60;2329.60;;;;;;5033698;28;20036;-56
2022/04/27 00:39:37;;;;;;;4.07;2.85;;;333.50;2329.60;;;;;;5033787;28;20535;-57
2022/04/27 00:42:17;;;;;;;3.20;2.45;;;333.50;2329.60;;;;;;5033698;28;20522;-57
2022/04/27 00:44:44;;;;;;;3.75;2.28;;;333.40;2329.60;;;;;;5033777;28;20042;-54
2022/04/27 00:47:14;;;;;;;4.13;2.58;;;333.20;2329.60;;;;;;5033348;28;20026;-60
2022/04/27 00:49:54;;;;;;;3.40;2.40;;;333.20;2329.60;;;;;;5033341;28;20037;-55
2022/04/27 00:52:22;;;;;;;5.13;2.50;;;333.20;2329.60;;;;;;5033500;28;20384;-59
2022/04/27 00:54:50;;;;;;;4.07;2.85;;;333.20;2329.60;;;;;;5033224;28;20079;-56
2022/04/27 00:57:16;;;;;;;4.03;2.47;;;333.20;2329.60;;;;;;5033468;28;20484;-56
2022/04/27 00:59:42;;;;;;;3.75;2.90;;;333.00;2329.60;;;;;;5033602;28;20026;-55
2022/04/27 01:02:08;;;;;;;3.38;2.35;;;333.00;2329.60;;;;;;5033405;28;20029;-58
2022/04/27 01:04:35;;;;;;;5.22;3.10;;;333.00;2329.60;;;;;;5033095;28;20514;-55
2022/04/27 01:07:02;;;;;;;3.25;2.47;;;333.10;2329.60;;;;;;5033111;28;20037;-56
2022/04/27 01:09:29;;;;;;;3.78;2.55;;;333.20;2329.60;;;;;;5033445;28;20033;-57
2022/04/27 01:11:59;;;;;;;3.40;2.38;;;333.20;2329.60;;;;;;5033856;28;20028;-57
2022/04/27 01:14:25;;;;;;;4.43;2.83;;;333.20;2329.60;;;;;;5033287;28;20025;-62
2022/04/27 01:16:56;;;;;;;5.63;3.83;;;333.00;2329.60;;;;;;5032920;28;20028;-59
2022/04/27 01:19:24;;;;;;;4.03;2.63;;;332.90;2329.60;;;;;;5033080;28;20468;-54
2022/04/27 01:21:56;;;;;;;4.07;3.00;;;308.00;2304.00;;;;;;5032876;28;20064;-56
2022/04/27 01:24:26;;;;;;;4.75;2.70;;;307.90;2304.00;;;;;;5033165;28;20030;-61
2022/04/27 01:26:53;;;;;;;6.13;3.63;;;307.90;2304.00;;;;;;5032936;28;20021;-57
2022/04/27 01:29:22;;;;;;;4.03;2.45;;;307.70;2304.00;;;;;;5033155;28;20029;-56
2022/04/27 01:31:49;;;;;;;3.47;2.45;;;307.60;2304.00;;;;;;5033808;28;20099;-56
2022/04/27 01:34:15;;;;;;;4.82;2.55;;;307.40;2304.00;;;;;;5033810;28;20026;-55
2022/04/27 01:36:41;;;;;;;3.75;2.45;;;307.30;2304.00;;;;;;5033473;28;20029;-56
2022/04/27 01:39:07;;;;;;;3.92;2.60;;;307.20;2304.00;;;;;;5034432;28;20018;-56
2022/04/27 01:41:34;;;;;;;6.05;3.13;;;282.50;2278.40;;;;;;5034282;28;20045;-55
2022/04/27 01:44:01;;;;;;;3.70;2.50;;;307.40;2304.00;;;;;;5033675;28;20389;-56
2022/04/27 01:46:28;;;;;;;4.55;2.78;;;307.60;2304.00;;;;;;5034567;28;20476;-56
2022/04/27 01:48:56;;;;;;;4.15;2.63;;;307.60;2304.00;;;;;;5034263;28;20037;-54
2022/04/27 01:54:14;;;;;;;4.10;2.28;;;307.80;2304.00;;;;;;5034093;28;20100;-56
2022/04/27 01:54:17;;;;;;;4.97;2.88;;;307.80;2304.00;;;;;;5034201;28;20052;-55
2022/04/27 01:56:47;;;;;;;4.40;2.78;;;307.90;2304.00;;;;;;5032614;28;20032;-55
2022/04/27 01:59:13;;;;;;;4.22;3.05;;;307.80;2304.00;;;;;;5032061;28;20025;-54
2022/04/27 02:01:39;;;;;;;5.57;2.92;;;307.90;2304.00;;;;;;5032173;28;20083;-57
2022/04/27 02:04:05;;;;;;;3.20;2.30;;;307.90;2304.00;;;;;;5032137;28;20037;-55
2022/04/27 02:06:35;;;;;;;3.42;2.60;;;308.00;2304.00;;;;;;5031989;28;20030;-56
2022/04/27 02:09:04;;;;;;;4.57;3.33;;;308.00;2304.00;;;;;;5032230;28;20037;-56
2022/04/27 02:11:31;;;;;;;3.75;2.47;;;308.00;2304.00;;;;;;5032044;28;20152;-56
2022/04/27 02:13:57;;;;;;;4.38;2.70;;;307.90;2304.00;;;;;;5032101;28;20484;-56
2022/04/27 02:16:27;;;;;;;3.55;2.55;;;307.90;2304.00;;;;;;5031791;28;20022;-55
2022/04/27 02:18:54;;;;;;;5.05;2.47;;;307.80;2304.00;;;;;;5031867;28;20037;-56
2022/04/27 02:21:20;;;;;;;3.63;2.33;;;307.80;2304.00;;;;;;5031641;28;20033;-54
2022/04/27 02:23:46;;;;;;;4.63;2.85;;;307.70;2304.00;;;;;;5031934;28;20037;-55
2022/04/27 02:26:12;;;;;;;5.13;2.40;;;307.60;2304.00;;;;;;5031709;28;20432;-55
2022/04/27 02:28:38;;;;;;;4.00;2.50;;;307.60;2304.00;;;;;;5031918;28;20026;-55
2022/04/27 02:31:03;;;;;;;3.72;2.70;;;307.60;2304.00;;;;;;5031727;28;20472;-56
2022/04/27 02:33:30;;;;;;;4.28;2.67;;;307.60;2304.00;;;;;;5031704;28;20030;-56
2022/04/27 02:35:56;;;;;;;4.10;2.72;;;307.60;2304.00;;;;;;5031573;28;20060;-56
2022/04/27 02:38:22;;;;;;;3.50;2.22;;;307.60;2304.00;;;;;;5031568;28;20112;-56
2022/04/27 02:40:48;;;;;;;7.88;2.78;;;307.60;2304.00;;;;;;5031762;28;20186;-56
2022/04/27 02:43:15;;;;;;;4.90;2.80;;;307.50;2304.00;;;;;;5031327;28;20063;-56
2022/04/27 02:45:41;;;;;;;3.88;2.75;;;307.60;2304.00;;;;;;5030852;28;20032;-54
2022/04/27 02:48:07;;;;;;;3.80;2.80;;;307.60;2304.00;;;;;;5031328;28;20100;-56
2022/04/27 02:53:17;;;;;;;3.58;2.47;;;307.60;2304.00;;;;;;5031576;28;20116;-56
2022/04/27 02:55:44;;;;;;;4.25;3.30;;;307.60;2304.00;;;;;;5031092;28;20116;-56
2022/04/27 02:58:10;;;;;;;3.80;2.47;;;307.60;2304.00;;;;;;5031124;28;20021;-56
2022/04/27 03:00:36;;;;;;;3.30;2.70;;;307.60;2304.00;;;;;;5031237;28;20056;-56
2022/04/27 03:03:02;;;;;;;3.78;2.60;;;307.60;2304.00;;;;;;5030742;28;20034;-56
2022/04/27 03:05:29;;;;;;;3.70;2.55;;;307.60;2304.00;;;;;;5031270;28;20774;-55
2022/04/27 03:07:54;;;;;;;4.07;2.38;;;307.60;2304.00;;;;;;5031036;28;20079;-56
2022/04/27 03:10:20;;;;;;;3.85;2.70;;;307.50;2304.00;;;;;;5030740;28;20033;-56
2022/04/27 03:12:46;;;;;;;4.28;2.78;;;307.40;2304.00;;;;;;5030913;28;20017;-55
2022/04/27 03:15:12;;;;;;;3.70;2.40;;;307.40;2304.00;;;;;;5030787;28;20029;-56
2022/04/27 03:17:38;;;;;;;3.53;2.60;;;307.50;2304.00;;;;;;5030767;28;20525;-56
2022/04/27 03:20:04;;;;;;;3.47;2.63;;;307.60;2304.00;;;;;;5030648;28;20041;-55
2022/04/27 03:22:30;;;;;;;3.88;2.67;;;307.60;2304.00;;;;;;5030792;28;20033;-56
2022/04/27 03:24:56;;;;;;;3.85;2.65;;;307.50;2304.00;;;;;;5030905;28;20037;-56
2022/04/27 03:27:21;;;;;;;3.40;2.33;;;307.50;2304.00;;;;;;5030847;28;20029;-55
2022/04/27 03:29:47;;;;;;;3.33;2.45;;;307.50;2304.00;;;;;;5030779;28;20416;-56
2022/04/27 03:32:13;;;;;;;6.25;3.13;;;307.60;2304.00;;;;;;5030559;28;20039;-55
2022/04/27 03:34:39;;;;;;;4.65;2.90;;;307.40;2304.00;;;;;;5030032;28;20095;-56
2022/04/27 03:37:05;;;;;;;3.00;2.33;;;307.30;2304.00;;;;;;5030753;28;20079;-56
2022/04/27 03:39:30;;;;;;;5.07;2.90;;;307.30;2304.00;;;;;;5030372;28;20579;-57
2022/04/27 03:41:57;;;;;;;4.57;2.67;;;307.40;2304.00;;;;;;5030794;28;20057;-55
2022/04/27 03:44:23;;;;;;;3.55;2.58;;;307.40;2304.00;;;;;;5030256;28;20031;-56
2022/04/27 03:46:49;;;;;;;4.55;2.55;;;307.50;2304.00;;;;;;5030330;28;20443;-56
2022/04/27 03:49:14;;;;;;;3.85;2.53;;;307.50;2304.00;;;;;;5030352;28;20032;-56
2022/04/27 03:51:40;;;;;;;4.18;2.58;;;307.60;2304.00;;;;;;5030200;28;20101;-56
2022/04/27 03:54:06;;;;;;;4.10;2.75;;;307.50;2304.00;;;;;;5030362;28;20022;-55
2022/04/27 03:56:32;;;;;;;4.68;2.67;;;307.60;2304.00;;;;;;5029389;28;20030;-55
2022/04/27 03:58:58;;;;;;;5.22;2.47;;;307.60;2304.00;;;;;;5030506;28;20025;-56
2022/04/27 04:01:24;;;;;;;4.63;3.22;;;307.40;2304.00;;;;;;5029957;28;20030;-55
2022/04/27 04:03:49;;;;;;;5.07;2.88;;;307.30;2304.00;;;;;;5029825;28;20045;-56
2022/04/27 04:06:15;;;;;;;3.10;2.25;;;307.30;2304.00;;;;;;5030092;28;20100;-55
2022/04/27 04:08:41;;;;;;;5.00;2.70;;;307.30;2304.00;;;;;;5030135;28;20025;-56
2022/04/27 04:11:07;;;;;;;2.83;2.17;;;307.30;2304.00;;;;;;5030143;28;20026;-56
2022/04/27 04:13:33;;;;;;;3.83;2.67;;;307.50;2304.00;;;;;;5029887;28;20028;-56
2022/04/27 04:15:58;;;;;;;3.30;2.28;;;307.20;2304.00;;;;;;5030285;28;20025;-56
2022/04/27 04:18:24;;;;;;;4.07;2.95;;;307.30;2304.00;;;;;;5030106;28;20539;-55
2022/04/27 04:20:50;;;;;;;4.72;3.53;;;307.40;2304.00;;;;;;5029945;28;20025;-56
2022/04/27 04:23:15;;;;;;;6.60;2.92;;;307.40;2304.00;;;;;;5030011;28;20361;-55
2022/04/27 04:28:31;;;;;;;4.85;2.85;;;307.30;2304.00;;;;;;5030414;28;20048;-55
2022/04/27 04:31:02;;;;;;;3.30;2.20;;;307.30;2304.00;;;;;;5029920;28;20021;-55
2022/04/27 04:33:28;;;;;;;5.60;2.80;;;307.20;2304.00;;;;;;5030050;28;20480;-55
2022/04/27 04:35:55;;;;;;;4.75;2.97;;;307.20;2304.00;;;;;;5029590;28;20057;-55
2022/04/27 04:38:21;;;;;;;3.90;2.85;;;307.30;2304.00;;;;;;5030071;28;20036;-56
2022/04/27 04:40:47;;;;;;;3.85;2.50;;;307.50;2304.00;;;;;;5029785;28;20025;-56
2022/04/27 04:43:14;;;;;;;3.65;2.55;;;307.60;2304.00;;;;;;5029604;28;20124;-56
2022/04/27 04:45:40;;;;;;;4.53;2.88;;;333.10;2329.60;;;;;;5029663;28;20472;-57
2022/04/27 04:48:08;;;;;;;4.25;2.80;;;409.90;2355.20;;;;;;5029962;28;20014;-56
2022/04/27 04:50:34;;;;;;;3.88;2.60;;;461.50;2380.80;;;;;;5029784;28;20037;-56
2022/04/27 04:53:00;;;;;;;3.38;2.30;;;486.50;2380.80;;;;;;5028096;28;20071;-57
2022/04/27 04:55:27;;;;;;;3.22;2.50;;;487.10;2227.20;;;;;;5028575;28;20025;-55
2022/04/27 04:57:52;;;;;;;3.10;2.33;;;460.90;2380.80;;;;;;5028164;28;20025;-55
2022/04/27 05:00:18;;;;;;;4.22;2.30;;;461.30;2380.80;;;;;;5028263;28;20433;-57
2022/04/27 05:02:44;;;;;;;4.40;2.33;;;461.20;2380.80;;;;;;5028286;28;20512;-55
2022/04/27 05:05:10;;;;;;;4.22;2.67;;;410.20;2355.20;;;;;;5029294;28;20045;-57
2022/04/27 05:07:36;;;;;;;4.05;3.10;;;384.60;2329.60;;;;;;5030166;28;20025;-55
2022/04/27 05:10:04;;;;;;;4.43;2.70;;;384.00;2329.60;;;;;;5033093;28;20029;-56
2022/04/27 05:12:30;;;;;;;3.95;2.67;;;359.30;2329.60;;;;;;5032893;28;20060;-56
2022/04/27 05:14:55;;;;;;;3.60;2.47;;;359.20;2329.60;;;;;;5033162;28;20064;-55
2022/04/27 05:17:23;;;;;;;3.70;2.53;;;359.20;2329.60;;;;;;5032842;28;20103;-55
2022/04/27 05:19:49;;;;;;;4.53;2.83;;;384.00;2329.60;;;;;;5032967;28;20029;-57
2022/04/27 05:22:15;;;;;;;3.72;2.22;;;384.10;2329.60;;;;;;5033162;28;20036;-57
2022/04/27 05:24:41;;;;;;;4.13;2.33;;;384.30;2329.60;;;;;;5032654;28;20179;-60
2022/04/27 05:27:06;;;;;;;4.18;2.72;;;384.50;2329.60;;;;;;5032885;28;20527;-56
2022/04/27 05:32:16;;;;;;;3.90;2.63;;;409.70;2355.20;;;;;;5032760;28;20471;-57
2022/04/27 05:34:42;;;;;;;3.58;2.25;;;409.90;2355.20;;;;;;5032079;28;20500;-57
2022/04/27 05:37:07;;;;;;;3.33;2.22;;;409.90;2355.20;;;;;;5032789;28;20030;-58
2022/04/27 05:39:33;;;;;;;4.20;2.70;;;409.60;2355.20;;;;;;5032301;28;20033;-57
2022/04/27 05:41:59;;;;;;;3.22;2.30;;;409.60;2355.20;;;;;;5032665;28;20026;-60
2022/04/27 05:44:26;;;;;;;2.80;2.15;;;384.80;2329.60;;;;;;5032450;28;20471;-56
2022/04/27 05:46:55;;;;;;;4.82;2.92;;;384.60;2329.60;;;;;;5031787;28;20056;-56
2022/04/27 05:49:22;;;;;;;4.05;2.78;;;384.30;2329.60;;;;;;5031910;28;20029;-57
2022/04/27 05:51:47;;;;;;;5.05;3.20;;;384.10;2329.60;;;;;;5036777;28;20025;-57
2022/04/27 05:54:14;;;;;;;3.67;2.67;;;384.20;2329.60;;;;;;5036691;28;20025;-60
2022/04/27 05:56:43;;;;;;;4.30;2.95;;;384.30;2329.60;;;;;;5038174;28;20395;-57
2022/04/27 05:59:09;;;;;;;4.85;2.83;;;384.40;2329.60;;;;;;5039861;28;20025;-55
2022/04/27 06:01:35;;;;;;;4.10;2.65;;;384.50;2329.60;;;;;;5040412;28;20368;-56
2022/04/27 06:04:01;;;;;;;4.72;2.90;;;384.70;2329.60;;;;;;5040731;28;20034;-56
2022/04/27 06:06:27;;;;;;;5.32;3.53;;;384.60;2329.60;;;;;;5039565;28;20034;-56
2022/04/27 06:08:52;;;;;;;4.50;3.08;;;409.60;2355.20;;;;;;5036115;28;20044;-56
2022/04/27 06:11:19;;;;;;;3.72;2.75;;;409.90;2355.20;;;;;;5031620;28;20021;-56
2022/04/27 06:13:47;;;;;;;4.20;3.00;;;410.00;2355.20;;;;;;5030530;28;20061;-58
2022/04/27 06:16:13;;;;;;;4.60;2.72;;;410.30;2355.20;;;;;;5030447;28;20531;-56
2022/04/27 06:18:40;;;;;;;4.28;3.17;;;410.50;2355.20;;;;;;5030673;28;20072;-56
2022/04/27 06:21:09;;;;;;;5.28;3.10;;;435.20;2355.20;;;;;;5030774;28;20052;-56
2022/04/27 06:23:37;;;;;;;3.72;2.63;;;435.40;2355.20;;;;;;5031635;28;20041;-56
2022/04/27 06:26:05;;;;;;;4.85;3.30;;;435.60;2355.20;;;;;;5031682;28;20033;-56
2022/04/27 06:28:31;;;;;;;6.43;3.47;;;435.70;2355.20;;;;;;5031485;28;20033;-57
2022/04/27 06:30:57;;;;;;;4.80;3.20;;;436.00;2355.20;;;;;;5032019;28;20048;-56
2022/04/27 06:33:23;;;;;;;4.25;3.33;;;460.80;2380.80;;;;;;5031539;28;20464;-56
2022/04/27 06:35:50;;;;;;;4.30;3.03;;;461.00;2380.80;;;;;;5031055;28;20512;-57
2022/04/27 06:38:16;;;;;;;3.85;2.60;;;461.20;2380.80;;;;;;5031575;28;20111;-57
2022/04/27 06:40:41;;;;;;;4.43;2.95;;;461.50;2380.80;;;;;;5031313;28;20056;-57
2022/04/27 06:43:07;;;;;;;4.25;2.85;;;461.50;2380.80;;;;;;5031492;28;20115;-57
2022/04/27 06:45:36;;;;;;;4.53;3.25;;;461.50;2380.80;;;;;;5031288;28;20029;-56
2022/04/27 06:48:05;;;;;;;4.55;3.10;;;461.60;2380.80;;;;;;5031343;28;20487;-56
2022/04/27 06:50:31;;;;;;;3.78;3.13;;;486.40;2380.80;;;;;;5029857;28;20049;-57
2022/04/27 06:52:59;;;;;;;4.30;2.97;;;486.60;2380.80;;;;;;5031340;28;20025;-58
2022/04/27 06:55:26;;;;;;;5.13;3.28;;;487.00;2380.80;;;;;;5031219;28;20022;-56
2022/04/27 06:57:52;;;;;;;4.57;3.03;;;512.50;2380.80;;;;;;5031011;28;20411;-58
2022/04/27 07:00:18;;;;;;;4.45;3.40;;;588.80;2048.00;;;;;;5031284;28;20063;-56
2022/04/27 07:02:44;;;;;;;4.25;2.88;;;589.00;2099.20;;;;;;5031167;28;20108;-57
2022/04/27 07:05:16;;;;;;;5.85;3.53;;;614.80;1894.40;;;;;;5030838;28;20037;-57
2022/04/27 07:07:46;;;;;;;4.38;3.55;;;589.50;1920.00;;;;;;5030912;28;20104;-57
2022/04/27 07:10:13;;;;;;;4.75;4.00;;;691.80;1612.80;;;;;;5030565;28;20104;-59
2022/04/27 07:12:39;;;;;;;4.35;3.95;;;717.10;1536.00;;;;;;5030674;28;20450;-57
2022/04/27 07:15:06;;;;;;;4.55;2.88;;;717.50;1459.20;;;;;;5030730;28;20475;-58
2022/04/27 07:17:32;;;;;;;4.28;3.88;;;691.30;1536.00;;;;;;5030731;28;20060;-57
2022/04/27 07:19:58;;;;;;;3.80;2.92;;;692.10;1510.40;;;;;;5030725;28;20477;-57
2022/04/27 07:22:24;;;;;;;5.32;3.53;;;716.90;1536.00;;;;;;5030416;28;20037;-57
2022/04/27 07:24:50;;;;;;;5.90;3.53;;;716.80;1536.00;;;;;;5030360;28;20064;-58
2022/04/27 07:27:18;;;;;;;4.88;3.30;;;691.70;1433.60;;;;;;5030730;28;20025;-57
2022/04/27 07:29:44;;;;;;;7.57;4.35;;;666.20;1510.40;;;;;;5030807;28;20033;-57
2022/04/27 07:32:10;;;;;;;5.03;3.35;;;640.40;1587.20;;;;;;5028902;28;20148;-57
2022/04/27 07:34:36;;;;;;;4.68;4.22;;;640.50;1664.00;;;;;;5030331;28;20088;-58
2022/04/27 07:37:03;;;;;;;5.53;4.20;;;691.70;1561.60;;;;;;5029157;28;20057;-57
2022/04/27 07:39:29;;;;;;;4.93;4.50;;;793.90;1382.40;;;;;;5030646;28;20486;-57
2022/04/27 07:41:55;;;;;;;5.35;4.95;;;819.90;1280.00;;;;;;5030383;28;20100;-57
2022/04/27 07:44:21;;;;;;;5.95;5.45;;;896.20;1152.00;;;;;;5030018;28;20041;-57
2022/04/27 07:46:50;;;;;;;6.35;5.85;;;896.00;1100.80;;;;;;5030251;28;20025;-58
2022/04/27 07:49:16;;;;;;;5.82;5.32;;;845.30;1177.60;;;;;;5030316;28;20392;-57
2022/04/27 07:51:42;;;;;;;7.32;6.72;;;896.80;1049.60;;;;;;5030096;28;20071;-66
2022/04/27 07:54:09;;;;;;;6.70;5.97;;;871.10;1100.80;;;;;;5030228;28;20112;-66
2022/04/27 07:56:35;;;;;;;5.57;5.07;;;870.60;1126.40;;;;;;5029082;28;20032;-58
2022/04/27 07:59:01;;;;;;;6.32;5.65;;;896.90;1024.00;;;;;;5030385;28;20022;-60
2022/04/27 08:01:26;;;;;;;6.82;6.32;;;870.90;1075.20;;;;;;5030084;28;20525;-57
2022/04/27 08:03:52;;;;;;;6.68;6.03;;;870.70;1100.80;;;;;;5029945;28;20042;-58
2022/04/27 08:06:18;;;;;;;6.97;6.35;;;845.50;1126.40;;;;;;5029980;28;20117;-58
2022/04/27 08:08:44;;;;;;;11.02;10.13;;;870.90;1100.80;;;;;;5030097;28;20052;-58
2022/04/27 08:11:12;;;;;;;5.75;5.25;;;871.10;1075.20;;;;;;5029856;28;20076;-59
2022/04/27 08:13:37;;;;;;;5.97;5.45;;;871.30;1075.20;;;;;;5029985;28;20387;-58
2022/04/27 08:16:03;;;;;;;6.03;5.55;;;871.10;1049.60;;;;;;5030038;28;20121;-58
2022/04/27 08:18:29;;;;;;;5.70;5.20;;;870.60;1100.80;;;;;;5029804;28;20038;-58
2022/04/27 08:23:40;;;;;;;5.18;4.78;;;870.70;1075.20;;;;;;5029591;28;20036;-58
2022/04/27 08:26:07;;;;;;;6.10;4.93;;;845.00;1100.80;;;;;;5029909;28;20076;-56
2022/04/27 08:28:34;;;;;;;5.65;4.50;;;820.10;1126.40;;;;;;5028491;28;20087;-57
2022/04/27 08:31:00;;;;;;;4.88;4.38;;;820.10;1100.80;;;;;;5029862;28;20036;-58
2022/04/27 08:33:26;;;;;;;4.38;4.07;;;793.70;1177.60;;;;;;5029983;28;20028;-57
2022/04/27 08:35:57;;;;;;;4.20;3.72;;;717.50;1254.40;;;;;;5029459;28;20555;-57
2022/04/27 08:38:24;;;;;;;4.60;3.80;;;691.90;1305.60;;;;;;5028606;28;20365;-57
2022/04/27 08:40:49;;;;;;;3.70;3.15;;;665.90;1408.00;;;;;;5029529;28;20026;-57
2022/04/27 08:43:16;;;;;;;3.92;2.70;;;665.70;1433.60;;;;;;5031507;28;20032;-57
2022/04/27 08:45:44;;;;;;;3.55;2.63;;;665.60;1459.20;;;;;;5033635;28;20108;-58
2022/04/27 08:48:13;;;;;;;4.05;2.92;;;665.60;1408.00;;;;;;5033427;28;20508;-57
2022/04/27 08:50:39;;;;;;;2.90;2.58;;;640.80;1382.40;;;;;;5033483;28;20029;-57
2022/04/27 08:53:06;;;;;;;3.58;2.50;;;640.40;1459.20;;;;;;5033541;28;20033;-57
2022/04/27 08:55:32;;;;;;;3.05;2.05;;;615.00;1484.80;;;;;;5033477;28;20028;-57
2022/04/27 08:58:14;;;;;;;3.63;2.75;;;615.20;1459.20;;;;;;5033815;28;20032;-57
2022/04/27 09:00:41;;;;;;;2.60;2.17;;;615.30;1459.20;;;;;;5033121;28;20108;-57
2022/04/27 09:03:34;;;;;;;3.00;2.47;;;640.40;1408.00;;;;;;5033023;28;20487;-62
2022/04/27 09:06:02;;;;;;;2.97;2.15;;;640.10;1459.20;;;;;;5033178;28;20037;-57
2022/04/27 09:08:45;;;;;;;2.25;1.75;;;615.30;1433.60;;;;;;5033327;28;20022;-57
2022/04/27 09:11:12;;;;;;;2.50;1.88;;;615.30;1382.40;;;;;;5033158;28;20083;-56
2022/04/27 09:13:38;;;;;;;3.47;2.38;;;615.30;1408.00;;;;;;5032988;28;20435;-56
2022/04/27 09:16:04;;;;;;;2.95;2.15;;;640.00;1382.40;;;;;;5032976;28;20074;-60
2022/04/27 09:21:54;;;;;;;3.42;2.33;;;615.00;1408.00;;;;;;5032943;28;20032;-57
2022/04/27 09:24:20;;;;;;;3.05;2.40;;;615.10;1459.20;;;;;;5032531;28;20092;-57
2022/04/27 09:27:03;;;;;;;2.70;1.98;;;615.00;1484.80;;;;;;5033027;28;20021;-59
2022/04/27 09:29:29;;;;;;;2.88;2.58;;;640.20;1433.60;;;;;;5033003;28;20357;-62
2022/04/27 09:31:59;;;;;;;2.47;1.85;;;640.60;1382.40;;;;;;5031642;28;20060;-56
2022/04/27 09:34:29;;;;;;;3.05;2.20;;;640.60;1408.00;;;;;;5032501;28;20102;-57
2022/04/27 09:37:16;;;;;;;2.45;1.90;;;615.20;1484.80;;;;;;5032819;28;20112;-57
2022/04/27 09:39:46;;;;;;;2.35;1.98;;;615.10;1433.60;;;;;;5032119;28;20427;-57
2022/04/27 09:42:14;;;;;;;2.85;2.30;;;614.90;1459.20;;;;;;5032417;28;20464;-56
2022/04/27 09:44:40;;;;;;;3.00;1.98;;;615.30;1459.20;;;;;;5032367;28;20045;-59
2022/04/27 09:47:08;;;;;;;2.97;2.20;;;640.00;1433.60;;;;;;5032632;28;20526;-57
2022/04/27 09:49:36;;;;;;;2.25;1.90;;;615.30;1408.00;;;;;;5032240;28;20093;-56
2022/04/27 09:52:05;;;;;;;3.15;2.10;;;614.90;1459.20;;;;;;5031976;28;20026;-57
2022/04/27 09:54:34;;;;;;;11.32;4.55;;;614.70;1484.80;;;;;;5031201;28;20025;-58
2022/04/27 09:57:05;;;;;;;8.40;2.58;;;614.50;1484.80;;;;;;5032345;28;20014;-56
2022/04/27 09:59:35;;;;;;;3.08;2.10;;;614.60;1484.80;;;;;;5032155;28;20078;-58
2022/04/27 10:02:05;;;;;;;4.43;1.80;;;614.40;1484.80;;;;;;5032028;28;20048;-56
2022/04/27 10:04:31;;;;;;;3.72;1.90;;;589.40;1510.40;;;;;;5029803;28;20063;-57
2022/04/27 10:06:58;;;;;;;2.92;2.17;;;589.10;1510.40;;;;;;5030543;28;20179;-59
2022/04/27 10:09:26;;;;;;;2.92;2.13;;;589.50;1510.40;;;;;;5030628;28;20395;-60
2022/04/27 10:11:53;;;;;;;3.88;2.03;;;589.70;1484.80;;;;;;5030365;28;20014;-61
2022/04/27 10:14:19;;;;;;;3.05;2.00;;;614.70;1510.40;;;;;;5030198;28;20111;-58
2022/04/27 10:16:45;;;;;;;2.08;1.58;;;615.00;1459.20;;;;;;5029844;28;20483;-60
2022/04/27 10:19:11;;;;;;;2.17;1.77;;;614.90;1459.20;;;;;;5030134;28;20088;-57
2022/04/27 10:22:01;;;;;;;3.67;2.38;;;614.70;1459.20;;;;;;5030010;28;20147;-58
2022/04/27 10:24:42;;;;;;;2.20;1.80;;;615.30;1433.60;;;;;;5030327;28;20030;-60
2022/04/27 10:27:20;;;;;;;2.72;2.22;;;640.30;1408.00;;;;;;5030200;28;20025;-59
2022/04/27 10:29:58;;;;;;;1.88;1.60;;;640.80;1408.00;;;;;;5029651;28;20025;-58
2022/04/27 10:32:43;;;;;;;5.43;1.92;;;665.70;1408.00;;;;;;5029958;28;20034;-59
2022/04/27 10:35:12;;;;;;;4.18;2.03;;;615.30;1433.60;;;;;;5029719;28;20053;-57
2022/04/27 10:37:50;;;;;;;2.95;2.25;;;640.00;1459.20;;;;;;5029960;28;20029;-57
2022/04/27 10:40:40;;;;;;;3.15;1.98;;;640.20;1459.20;;;;;;5030009;28;20033;-62
2022/04/27 10:43:25;;;;;;;3.15;1.90;;;615.00;1433.60;;;;;;5029546;28;20021;-58
2022/04/27 10:45:50;;;;;;;2.30;1.60;;;615.20;1459.20;;;;;;5029804;28;20484;-63
2022/04/27 10:48:24;;;;;;;3.55;1.85;;;614.80;1484.80;;;;;;5029758;28;20037;-59
2022/04/27 10:51:03;;;;;;;2.75;1.90;;;614.80;1587.20;;;;;;5029564;28;20109;-57
2022/04/27 10:53:38;;;;;;;2.80;1.90;;;614.70;1510.40;;;;;;5029558;28;20064;-58
2022/04/27 10:56:19;;;;;;;2.30;1.88;;;615.00;1433.60;;;;;;5029132;28;20037;-59
2022/04/27 10:58:45;;;;;;;2.75;1.90;;;614.90;1459.20;;;;;;5029682;28;20051;-57
2022/04/27 11:01:11;;;;;;;3.28;2.20;;;615.10;1459.20;;;;;;5028083;28;20455;-57
2022/04/27 11:03:38;;;;;;;4.47;2.55;;;614.70;1510.40;;;;;;5029245;28;20038;-57
2022/04/27 11:06:05;;;;;;;2.42;2.13;;;640.10;1484.80;;;;;;5028932;28;20212;-59
2022/04/27 11:08:52;;;;;;;2.33;1.90;;;615.00;1459.20;;;;;;5027198;28;20514;-57
2022/04/27 11:11:21;;;;;;;3.67;2.42;;;615.10;1433.60;;;;;;5031598;28;20029;-59
2022/04/27 11:13:48;;;;;;;32.80;11.60;;;614.60;1510.40;;;;;;5031146;28;20032;-57
2022/04/27 11:16:14;;;;;;;6.07;4.70;;;614.70;1510.40;;;;;;5030545;28;20029;-56
2022/04/27 11:18:52;;;;;;;4.38;2.80;;;615.10;1561.60;;;;;;5030596;28;20083;-57
2022/04/27 11:21:21;;;;;;;3.03;2.20;;;615.30;1638.40;;;;;;5030800;28;20022;-61
2022/04/27 11:23:48;;;;;;;4.25;2.60;;;615.20;1587.20;;;;;;5030637;28;20025;-57
2022/04/27 11:26:14;;;;;;;5.72;3.97;;;615.00;1484.80;;;;;;5030665;28;20029;-57
2022/04/27 11:28:43;;;;;;;5.63;3.60;;;615.00;1561.60;;;;;;5030339;28;20052;-57
2022/04/27 11:31:09;;;;;;;5.90;4.35;;;615.20;1536.00;;;;;;5030793;28;20061;-58
2022/04/27 11:33:40;;;;;;;5.60;3.10;;;614.90;1561.60;;;;;;5030684;28;20040;-57
2022/04/27 11:36:26;;;;;;;6.13;2.75;;;614.80;1536.00;;;;;;5029344;28;20054;-59
2022/04/27 11:38:53;;;;;;;9.48;3.97;;;614.60;1536.00;;;;;;5029920;28;20037;-56
2022/04/27 11:41:22;;;;;;;3.53;2.88;;;615.20;1510.40;;;;;;5030328;28;20025;-63
2022/04/27 11:43:49;;;;;;;5.55;3.53;;;614.70;1536.00;;;;;;5030583;28;20117;-56
2022/04/27 11:46:15;;;;;;;3.95;2.35;;;615.00;1510.40;;;;;;5030511;28;20021;-56
2022/04/27 11:48:47;;;;;;;3.10;2.30;;;614.90;1510.40;;;;;;5030281;28;20060;-57
2022/04/27 11:51:13;;;;;;;6.05;3.45;;;614.80;1510.40;;;;;;5030241;28;20013;-56
2022/04/27 11:53:45;;;;;;;3.63;2.55;;;615.20;1484.80;;;;;;5030368;28;20357;-56
2022/04/27 11:56:11;;;;;;;2.67;2.05;;;615.00;1510.40;;;;;;5030016;28;20431;-56
2022/04/27 11:58:38;;;;;;;2.78;2.17;;;640.00;1484.80;;;;;;5030360;28;20083;-59
2022/04/27 12:01:03;;;;;;;2.67;1.92;;;640.20;1484.80;;;;;;5030199;28;20029;-57
2022/04/27 12:03:32;;;;;;;2.70;2.00;;;640.30;1484.80;;;;;;5029891;28;20041;-58
2022/04/27 12:05:58;;;;;;;127.93;66.43;;;640.10;1484.80;;;;;;5030233;28;20033;-58
2022/04/27 12:08:25;;;;;;;16.73;10.02;;;614.70;1484.80;;;;;;5030097;28;20384;-57
2022/04/27 12:10:51;;;;;;;6.97;3.58;;;614.80;1484.80;;;;;;5029802;28;20502;-57
2022/04/27 12:13:20;;;;;;;4.07;2.90;;;614.70;1587.20;;;;;;5030135;28;20030;-58
2022/04/27 12:15:50;;;;;;;4.35;2.45;;;614.40;1536.00;;;;;;5030058;28;20045;-57
2022/04/27 12:18:20;;;;;;;2.95;2.20;;;614.80;1484.80;;;;;;5031547;28;20037;-57
2022/04/27 12:20:48;;;;;;;2.88;2.22;;;615.30;1561.60;;;;;;5034156;28;20486;-57
2022/04/27 12:23:16;;;;;;;2.88;1.98;;;640.20;1484.80;;;;;;5034064;28;20025;-58
2022/04/27 12:25:49;;;;;;;3.40;2.60;;;640.00;1510.40;;;;;;5033783;28;20052;-60
2022/04/27 12:28:19;;;;;;;3.80;2.92;;;615.20;1510.40;;;;;;5034000;28;20041;-57
2022/04/27 12:30:56;;;;;;;3.35;2.80;;;640.20;1510.40;;;;;;5034305;28;20407;-58
2022/04/27 12:33:43;;;;;;;3.00;2.50;;;640.00;1484.80;;;;;;5033689;28;20025;-59
2022/04/27 12:39:03;;;;;;;4.15;2.80;;;614.90;1510.40;;;;;;5034242;28;20145;-59